createdAt,value
2018-06-17T14:02:30.919Z,12.32
2018-06-17T14:08:25.004Z,4.4
2018-06-17T14:14:20.045Z,4.02
2018-06-17T14:20:15.043Z,4.49
2018-06-17T14:26:10.023Z,6.11
2018-06-17T14:32:05.014Z,4.51
2018-06-17T14:38:00.079Z,4.9
2018-06-17T14:43:55.022Z,6.07
2018-06-17T14:49:50.012Z,5.72
2018-06-17T14:55:45.073Z,4.25
2018-06-17T15:01:40.114Z,5.45
2018-06-17T15:07:35.066Z,4.44
2018-06-17T15:13:30.055Z,6.41
2018-06-17T15:19:25.068Z,4.5
2018-06-17T15:25:20.107Z,5.31
2018-06-17T15:31:15.100Z,3.94
2018-06-17T15:37:10.064Z,4.21
2018-06-17T15:43:05.077Z,5.08
2018-06-17T15:49:00.129Z,5.24
2018-06-17T15:54:55.097Z,4.2
2018-06-17T16:00:50.106Z,4.72
2018-06-17T16:06:45.125Z,7.02
2018-06-17T16:12:40.160Z,6.29
2018-06-17T16:18:35.083Z,6.22
2018-06-17T16:24:30.127Z,5.77
2018-06-17T16:30:25.115Z,4.55
2018-06-17T16:36:20.126Z,5.39
2018-06-17T16:42:15.195Z,5.49
2018-06-17T16:48:10.195Z,4.56
2018-06-17T16:54:05.173Z,5.84
2018-06-17T17:00:00.174Z,6.3
2018-06-17T17:05:55.134Z,5.62
2018-06-17T17:11:50.202Z,5.69
2018-06-17T17:17:45.141Z,5.83
2018-06-17T17:23:40.157Z,7.93
2018-06-17T17:29:35.165Z,6.73
2018-06-17T17:35:30.170Z,7.3
2018-06-17T17:41:25.234Z,6.18
2018-06-17T17:47:20.240Z,5.6
2018-06-17T17:53:15.171Z,6.11
2018-06-17T17:59:10.196Z,5.19
2018-06-17T18:05:05.159Z,5.99
2018-06-17T18:11:00.236Z,6.45
2018-06-17T18:16:55.217Z,6.22
2018-06-17T18:22:50.228Z,7.18
2018-06-17T18:28:45.269Z,6.06
2018-06-17T18:34:40.236Z,6.39
2018-06-17T18:40:35.215Z,6.28
2018-06-17T18:46:30.250Z,6.81
2018-06-17T18:52:25.273Z,8.28
2018-06-17T18:58:20.232Z,7.52
2018-06-17T19:04:15.197Z,6.48
2018-06-17T19:10:10.276Z,6.73
2018-06-17T19:16:05.349Z,8.67
2018-06-17T19:22:00.254Z,6.94
2018-06-17T19:27:55.270Z,9.63
2018-06-17T19:33:50.268Z,7.53
2018-06-17T19:39:45.273Z,7.24
2018-06-17T19:45:40.308Z,6.33
2018-06-17T19:51:35.308Z,6.97
2018-06-17T19:57:30.321Z,11.11
2018-06-17T20:03:25.259Z,9.36
2018-06-17T20:09:20.294Z,8.92
2018-06-17T20:15:15.258Z,8.91
2018-06-17T20:21:10.304Z,6.6
2018-06-17T20:27:05.312Z,9.39
2018-06-17T20:33:00.295Z,8.1
2018-06-17T20:38:55.271Z,8.31
2018-06-17T20:44:50.289Z,8.46
2018-06-17T20:50:45.325Z,8.31
2018-06-17T20:56:40.283Z,9.58
2018-06-17T21:02:35.324Z,9.01
2018-06-17T21:08:30.352Z,10
2018-06-17T21:14:25.312Z,9.57
2018-06-17T21:20:20.377Z,10.02
2018-06-17T21:26:15.357Z,11.06
2018-06-17T21:32:10.334Z,10.39
2018-06-17T21:38:05.447Z,10.23
2018-06-17T21:44:00.319Z,10.76
2018-06-17T21:49:55.383Z,9.65
2018-06-17T21:55:50.369Z,11.25
2018-06-17T22:01:45.408Z,10.66
2018-06-17T22:07:40.378Z,10.76
2018-06-17T22:13:35.371Z,10.56
2018-06-17T22:19:30.341Z,10.46
2018-06-17T22:25:25.353Z,12
2018-06-17T22:31:20.369Z,10.4
2018-06-17T22:37:15.426Z,11.79
2018-06-17T22:43:10.408Z,9.29
2018-06-17T22:49:05.366Z,10.73
2018-06-17T22:55:00.389Z,8.5
2018-06-17T23:00:55.404Z,11.3
2018-06-17T23:06:50.432Z,12.94
2018-06-17T23:12:45.425Z,10.48
2018-06-17T23:18:40.412Z,9.97
2018-06-17T23:24:35.465Z,12.43
2018-06-17T23:30:30.385Z,12.38
2018-06-17T23:36:25.415Z,11.25
2018-06-17T23:42:20.417Z,9.35
2018-06-17T23:48:15.476Z,10.44
2018-06-17T23:54:10.462Z,11.13
